createdAt,value
2019-03-16T00:00:38.878Z,98703.53
2019-03-16T00:03:10.250Z,98707.18
2019-03-16T00:05:41.445Z,98699.22
2019-03-16T00:08:12.647Z,98691.75
2019-03-16T00:10:44.014Z,98694.76
2019-03-16T00:13:16.241Z,98682.99
2019-03-16T00:15:47.757Z,98675.37
2019-03-16T00:18:19.054Z,98677.69
2019-03-16T00:20:50.352Z,98675.69
2019-03-16T00:23:21.745Z,98681.83
2019-03-16T00:25:53.003Z,98673.67
2019-03-16T00:28:24.367Z,98664.92
2019-03-16T00:30:55.615Z,98658.77
2019-03-16T00:33:26.925Z,98661.11
2019-03-16T00:35:58.243Z,98660.77
2019-03-16T00:38:29.537Z,98662.09
2019-03-16T00:41:00.783Z,98663.43
2019-03-16T00:43:32.115Z,98663.90
2019-03-16T00:46:03.510Z,98661.09
2019-03-16T00:48:34.834Z,98669.20
2019-03-16T00:51:06.255Z,98669.71
2019-03-16T00:53:37.522Z,98665.40
2019-03-16T00:56:08.910Z,98666.06
2019-03-16T00:58:40.357Z,98664.73
2019-03-16T01:01:11.542Z,98664.75
2019-03-16T01:03:42.731Z,98661.44
2019-03-16T01:06:14.128Z,98668.05
2019-03-16T01:08:45.400Z,98668.06
2019-03-16T01:11:16.718Z,98662.42
2019-03-16T01:13:47.988Z,98657.13
2019-03-16T01:16:19.257Z,98654.45
2019-03-16T01:18:50.587Z,98658.77
2019-03-16T01:21:21.932Z,98660.44
2019-03-16T01:23:53.275Z,98658.11
2019-03-16T01:26:24.630Z,98656.45
2019-03-16T01:28:55.956Z,98659.11
2019-03-16T01:31:27.297Z,98667.89
2019-03-16T01:33:58.943Z,98671.05
2019-03-16T01:36:30.349Z,98670.38
2019-03-16T01:39:01.652Z,98673.05
2019-03-16T01:41:34.647Z,98669.70
2019-03-16T01:44:05.971Z,98666.56
2019-03-16T01:46:37.308Z,98667.41
2019-03-16T01:49:08.700Z,98662.59
2019-03-16T01:51:40.060Z,98667.41
2019-03-16T01:54:11.458Z,98665.39
2019-03-16T01:56:42.781Z,98655.12
2019-03-16T01:59:14.100Z,98657.13
2019-03-16T02:01:45.470Z,98660.26
2019-03-16T02:04:16.793Z,98659.28
2019-03-16T02:06:48.112Z,98654.30
2019-03-16T02:09:19.471Z,98651.48
2019-03-16T02:11:50.849Z,98654.28
2019-03-16T02:14:22.163Z,98648.50
2019-03-16T02:16:53.537Z,98654.14
2019-03-16T02:19:24.823Z,98645.86
2019-03-16T02:21:55.990Z,98646.66
2019-03-16T02:24:27.303Z,98645.67
2019-03-16T02:26:58.603Z,98640.86
2019-03-16T02:29:29.987Z,98640.53
2019-03-16T02:32:01.387Z,98642.03
2019-03-16T02:34:32.740Z,98641.53
2019-03-16T02:37:04.052Z,98645.84
2019-03-16T02:39:35.415Z,98642.86
2019-03-16T02:42:06.730Z,98644.84
2019-03-16T02:44:38.030Z,98644.52
2019-03-16T02:47:09.266Z,98641.53
2019-03-16T02:49:40.610Z,98640.20
2019-03-16T02:52:12.031Z,98636.89
2019-03-16T02:54:43.445Z,98636.72
2019-03-16T02:57:14.677Z,98634.07
2019-03-16T02:59:45.927Z,98636.55
2019-03-16T03:02:17.240Z,98631.58
2019-03-16T03:04:48.608Z,98631.07
2019-03-16T03:07:19.881Z,98634.24
2019-03-16T03:09:51.207Z,98632.54
2019-03-16T03:12:22.610Z,98632.18
2019-03-16T03:14:54.078Z,98634.50
2019-03-16T03:17:25.307Z,98637.07
2019-03-16T03:19:56.622Z,98634.10
2019-03-16T03:22:27.985Z,98646.67
2019-03-16T03:24:59.339Z,98646.48
2019-03-16T03:27:30.675Z,98647.97
2019-03-16T03:30:02.169Z,98641.59
2019-03-16T03:32:33.529Z,98644.33
2019-03-16T03:35:06.150Z,98643.97
2019-03-16T03:37:37.503Z,98650.40
2019-03-16T03:40:10.294Z,98638.04
2019-03-16T03:42:41.619Z,98641.56
2019-03-16T03:45:14.198Z,98647.91
2019-03-16T03:47:44.871Z,98643.36
2019-03-16T03:50:16.188Z,98649.20
2019-03-16T03:52:47.505Z,98644.91
2019-03-16T03:55:18.831Z,98646.53
2019-03-16T03:57:50.159Z,98640.27
2019-03-16T04:00:21.575Z,98642.56
2019-03-16T04:02:52.732Z,98634.06
2019-03-16T04:05:24.143Z,98640.23
2019-03-16T04:07:56.519Z,98634.55
2019-03-16T04:10:27.812Z,98636.52
2019-03-16T04:12:59.123Z,98639.84
2019-03-16T04:15:30.377Z,98641.09
2019-03-16T04:18:02.178Z,98643.09
2019-03-16T04:20:33.434Z,98638.72
2019-03-16T04:23:04.760Z,98636.39
2019-03-16T04:25:35.901Z,98630.42
2019-03-16T04:28:07.195Z,98632.62
2019-03-16T04:30:38.429Z,98635.27
2019-03-16T04:33:10.125Z,98627.26
2019-03-16T04:35:41.327Z,98630.23
2019-03-16T04:38:12.623Z,98623.97
2019-03-16T04:40:44.803Z,98634.30
2019-03-16T04:43:16.064Z,98638.39
2019-03-16T04:45:47.407Z,98631.55
2019-03-16T04:48:18.721Z,98640.01
2019-03-16T04:50:50.230Z,98636.52
2019-03-16T04:53:22.095Z,98635.59
2019-03-16T04:55:53.423Z,98631.27
2019-03-16T04:58:24.761Z,98629.27
2019-03-16T05:00:55.994Z,98623.90
2019-03-16T05:03:27.333Z,98619.35
2019-03-16T05:05:58.601Z,98619.91
2019-03-16T05:08:29.894Z,98615.30
2019-03-16T05:11:01.201Z,98613.00
2019-03-16T05:13:32.572Z,98609.72
2019-03-16T05:16:03.875Z,98606.41
2019-03-16T05:18:35.128Z,98612.70
2019-03-16T05:21:06.450Z,98610.05
2019-03-16T05:23:37.883Z,98617.62
2019-03-16T05:26:09.296Z,98616.56
2019-03-16T05:28:40.684Z,98616.53
2019-03-16T05:31:11.928Z,98614.47
2019-03-16T05:33:43.084Z,98609.28
2019-03-16T05:36:14.450Z,98606.96
2019-03-16T05:38:45.810Z,98609.30
2019-03-16T05:41:17.080Z,98609.92
2019-03-16T05:43:48.455Z,98604.89
2019-03-16T05:46:19.852Z,98603.17
2019-03-16T05:48:51.142Z,98594.16
2019-03-16T05:51:22.473Z,98594.41
2019-03-16T05:53:53.840Z,98602.06
2019-03-16T05:56:25.178Z,98598.23
2019-03-16T05:58:56.551Z,98597.55
2019-03-16T06:01:27.792Z,98595.38
2019-03-16T06:03:59.229Z,98590.23
2019-03-16T06:06:30.561Z,98585.75
2019-03-16T06:09:01.952Z,98585.19
2019-03-16T06:11:33.431Z,98584.91
2019-03-16T06:14:04.867Z,98574.34
2019-03-16T06:16:36.163Z,98566.89
2019-03-16T06:19:07.586Z,98570.22
2019-03-16T06:21:38.939Z,98576.02
2019-03-16T06:24:10.293Z,98574.19
2019-03-16T06:26:41.705Z,98574.46
2019-03-16T06:29:13.144Z,98568.47
2019-03-16T06:31:44.567Z,98561.81
2019-03-16T06:34:15.964Z,98563.03
2019-03-16T06:36:47.358Z,98562.23
2019-03-16T06:39:18.747Z,98565.12
2019-03-16T06:41:50.012Z,98564.18
2019-03-16T06:44:21.274Z,98554.42
2019-03-16T06:46:53.176Z,98551.70
2019-03-16T06:49:24.486Z,98556.61
2019-03-16T06:51:55.841Z,98548.92
2019-03-16T06:54:27.269Z,98558.48
2019-03-16T06:56:58.647Z,98559.29
2019-03-16T06:59:29.913Z,98551.49
2019-03-16T07:02:01.253Z,98551.50
2019-03-16T07:04:32.669Z,98551.17
2019-03-16T07:07:04.096Z,98547.62
2019-03-16T07:09:35.417Z,98549.53
2019-03-16T07:12:06.710Z,98553.20
2019-03-16T07:14:38.083Z,98550.89
2019-03-16T07:17:09.311Z,98549.14
2019-03-16T07:19:40.696Z,98547.03
2019-03-16T07:22:12.063Z,98537.11
2019-03-16T07:24:43.460Z,98537.09
2019-03-16T07:27:25.630Z,98532.14
2019-03-16T07:29:47.844Z,98529.16
2019-03-16T07:32:19.182Z,98526.35
2019-03-16T07:34:50.489Z,98525.64
2019-03-16T07:37:21.798Z,98516.19
2019-03-16T07:39:53.082Z,98529.16
2019-03-16T07:42:24.429Z,98527.98
2019-03-16T07:45:07.467Z,98524.78
2019-03-16T07:47:28.867Z,98517.08
2019-03-16T07:50:00.389Z,98516.06
2019-03-16T07:52:31.796Z,98523.42
2019-03-16T07:55:05.016Z,98514.55
2019-03-16T07:57:40.422Z,98521.81
2019-03-16T08:00:11.275Z,98520.17
2019-03-16T08:02:42.479Z,98522.06
2019-03-16T08:05:18.511Z,98517.49
2019-03-16T08:07:46.842Z,98513.45
2019-03-16T08:10:18.159Z,98509.25
2019-03-16T08:12:49.496Z,98502.22
2019-03-16T08:15:20.870Z,98501.58
2019-03-16T08:17:52.160Z,98510.13
2019-03-16T08:20:23.535Z,98508.20
2019-03-16T08:22:54.852Z,98511.36
2019-03-16T08:25:26.281Z,98498.41
2019-03-16T08:27:57.449Z,98493.25
2019-03-16T08:30:28.473Z,98486.70
2019-03-16T08:32:59.810Z,98481.81
2019-03-16T08:35:32.252Z,98475.75
2019-03-16T08:38:03.454Z,98470.64
2019-03-16T08:40:34.848Z,98475.63
2019-03-16T08:43:07.302Z,98472.02
2019-03-16T08:45:38.702Z,98474.83
2019-03-16T08:48:22.215Z,98479.42
2019-03-16T08:50:43.248Z,98471.27
2019-03-16T08:53:15.238Z,98473.50
2019-03-16T08:55:46.762Z,98470.86
2019-03-16T08:58:18.081Z,98477.54
2019-03-16T09:00:49.399Z,98468.72
2019-03-16T09:03:20.782Z,98465.16
2019-03-16T09:05:52.246Z,98463.05
2019-03-16T09:08:23.625Z,98462.47
2019-03-16T09:10:55.165Z,98460.34
2019-03-16T09:13:26.557Z,98456.75
2019-03-16T09:15:57.963Z,98450.34
2019-03-16T09:18:29.362Z,98452.38
2019-03-16T09:21:00.715Z,98458.09
2019-03-16T09:23:32.104Z,98448.88
2019-03-16T09:26:03.504Z,98441.78
2019-03-16T09:28:34.809Z,98441.11
2019-03-16T09:31:06.167Z,98444.66
2019-03-16T09:33:37.550Z,98444.86
2019-03-16T09:36:08.872Z,98435.70
2019-03-16T09:38:40.187Z,98427.95
2019-03-16T09:41:11.590Z,98425.91
2019-03-16T09:43:42.858Z,98416.72
2019-03-16T09:46:14.226Z,98420.42
2019-03-16T09:48:45.656Z,98425.53
2019-03-16T09:51:17.091Z,98418.19
2019-03-16T09:53:48.446Z,98418.38
2019-03-16T09:56:19.789Z,98418.06
2019-03-16T09:58:50.897Z,98409.94
2019-03-16T10:01:22.215Z,98406.52
2019-03-16T10:03:53.682Z,98404.96
2019-03-16T10:06:25.017Z,98400.38
2019-03-16T10:08:56.320Z,98399.31
2019-03-16T10:11:27.592Z,98385.03
2019-03-16T10:13:58.726Z,98382.00
2019-03-16T10:16:30.214Z,98373.09
2019-03-16T10:19:01.524Z,98373.58
2019-03-16T10:21:32.788Z,98367.63
2019-03-16T10:24:04.061Z,98361.56
2019-03-16T10:26:37.560Z,98357.95
2019-03-16T10:29:08.463Z,98358.23
2019-03-16T10:31:39.722Z,98351.90
2019-03-16T10:34:10.997Z,98330.19
2019-03-16T10:36:42.356Z,98322.27
2019-03-16T10:39:13.696Z,98305.78
2019-03-16T10:41:45.131Z,98307.64
2019-03-16T10:44:16.455Z,98289.59
2019-03-16T10:46:47.779Z,98290.05
2019-03-16T10:49:19.052Z,98292.83
2019-03-16T10:51:50.461Z,98294.58
2019-03-16T10:54:21.699Z,98287.16
2019-03-16T10:56:53.123Z,98277.47
2019-03-16T10:59:24.537Z,98281.56
2019-03-16T11:01:55.970Z,98273.45
2019-03-16T11:04:28.266Z,98263.79
2019-03-16T11:06:59.650Z,98265.95
2019-03-16T11:09:31.049Z,98264.90
2019-03-16T11:12:02.587Z,98258.75
2019-03-16T11:14:33.989Z,98256.88
2019-03-16T11:17:05.343Z,98253.17
2019-03-16T11:19:36.742Z,98254.91
2019-03-16T11:22:08.130Z,98253.88
2019-03-16T11:24:39.476Z,98248.14
2019-03-16T11:27:10.724Z,98240.73
2019-03-16T11:29:42.089Z,98233.91
2019-03-16T11:32:13.462Z,98236.52
2019-03-16T11:34:45.212Z,98231.48
2019-03-16T11:37:16.789Z,98232.57
2019-03-16T11:39:48.164Z,98246.23
2019-03-16T11:42:19.474Z,98234.80
2019-03-16T11:44:50.732Z,98237.88
2019-03-16T11:47:21.989Z,98229.84
2019-03-16T11:49:53.300Z,98219.08
2019-03-16T11:52:24.687Z,98214.67
2019-03-16T11:54:56.067Z,98213.44
2019-03-16T11:57:27.483Z,98214.75
2019-03-16T11:59:58.712Z,98211.40
2019-03-16T12:02:30.076Z,98191.80
2019-03-16T12:05:02.258Z,98198.06
2019-03-16T12:07:33.703Z,98196.16
2019-03-16T12:10:07.582Z,98195.48
2019-03-16T12:12:38.859Z,98195.13
2019-03-16T12:15:11.611Z,98195.28
2019-03-16T12:17:43.016Z,98205.22
2019-03-16T12:20:18.707Z,98195.57
2019-03-16T12:22:50.263Z,98195.17
2019-03-16T12:25:21.614Z,98184.14
2019-03-16T12:27:52.963Z,98173.14
2019-03-16T12:30:24.326Z,98176.54
2019-03-16T12:32:55.610Z,98170.78
2019-03-16T12:35:26.980Z,98172.84
2019-03-16T12:37:58.301Z,98172.22
2019-03-16T12:40:29.711Z,98177.65
2019-03-16T12:43:01.059Z,98172.58
2019-03-16T12:45:32.367Z,98164.43
2019-03-16T12:48:03.681Z,98161.45
2019-03-16T12:50:34.579Z,98163.37
2019-03-16T12:53:05.889Z,98161.05
2019-03-16T12:55:37.188Z,98159.15
2019-03-16T12:58:08.454Z,98159.97
2019-03-16T13:00:39.837Z,98159.11
2019-03-16T13:03:11.229Z,98151.49
2019-03-16T13:05:42.565Z,98147.88
2019-03-16T13:08:13.885Z,98144.66
2019-03-16T13:10:45.191Z,98140.22
2019-03-16T13:13:16.582Z,98140.09
2019-03-16T13:15:47.991Z,98138.10
2019-03-16T13:18:19.347Z,98145.20
2019-03-16T13:20:50.726Z,98133.31
2019-03-16T13:23:21.914Z,98129.97
2019-03-16T13:25:53.257Z,98127.36
2019-03-16T13:28:24.553Z,98126.77
2019-03-16T13:30:56.313Z,98114.70
2019-03-16T13:33:27.665Z,98116.95
2019-03-16T13:35:59.032Z,98113.70
2019-03-16T13:38:30.414Z,98107.11
2019-03-16T13:41:01.719Z,98092.27
2019-03-16T13:43:32.961Z,98088.34
2019-03-16T13:46:04.321Z,98088.52
2019-03-16T13:48:35.739Z,98081.08
2019-03-16T13:51:07.070Z,98077.38
2019-03-16T13:53:38.365Z,98079.74
2019-03-16T13:56:09.966Z,98081.53
2019-03-16T13:58:41.216Z,98082.54
2019-03-16T14:01:12.487Z,98076.81
2019-03-16T14:03:43.870Z,98080.33
2019-03-16T14:06:15.369Z,98076.10
2019-03-16T14:08:46.706Z,98076.10
2019-03-16T14:11:18.076Z,98074.24
2019-03-16T14:13:49.437Z,98083.38
2019-03-16T14:16:21.096Z,98069.14
2019-03-16T14:18:52.283Z,98067.24
2019-03-16T14:21:23.620Z,98059.72
2019-03-16T14:23:56.087Z,98059.72
2019-03-16T14:26:27.388Z,98048.73
2019-03-16T14:28:58.735Z,98061.66
2019-03-16T14:31:30.046Z,98060.31
2019-03-16T14:34:01.675Z,98057.61
2019-03-16T14:36:32.926Z,98051.72
2019-03-16T14:39:06.424Z,98036.64
2019-03-16T14:41:37.675Z,98037.98
2019-03-16T14:44:09.156Z,98035.19
2019-03-16T14:46:40.506Z,98031.70
2019-03-16T14:49:11.845Z,98031.27
2019-03-16T14:51:43.137Z,98025.30
2019-03-16T14:54:14.459Z,98018.17
2019-03-16T14:56:45.936Z,98020.70
2019-03-16T14:59:17.190Z,98010.70
2019-03-16T15:01:48.572Z,98027.70
2019-03-16T15:04:19.866Z,98021.69
2019-03-16T15:06:51.236Z,98010.48
2019-03-16T15:09:22.612Z,98012.06
2019-03-16T15:11:53.979Z,98014.35
2019-03-16T15:14:25.286Z,98010.25
2019-03-16T15:16:56.550Z,98014.30
2019-03-16T15:19:27.874Z,98007.00
2019-03-16T15:21:59.285Z,98003.52
2019-03-16T15:24:30.549Z,98005.42
2019-03-16T15:27:01.901Z,98009.41
2019-03-16T15:29:33.208Z,98007.62
2019-03-16T15:32:04.448Z,98005.39
2019-03-16T15:34:35.774Z,98006.25
2019-03-16T15:37:07.214Z,98000.80
2019-03-16T15:39:38.539Z,98004.77
2019-03-16T15:42:10.759Z,98004.92
2019-03-16T15:44:42.804Z,98006.50
2019-03-16T15:47:14.100Z,98007.56
2019-03-16T15:49:45.377Z,98012.22
2019-03-16T15:52:16.817Z,97999.42
2019-03-16T15:54:48.077Z,98005.41
2019-03-16T15:57:19.397Z,98003.08
2019-03-16T15:59:50.712Z,98004.79
2019-03-16T16:02:21.960Z,98003.59
2019-03-16T16:04:53.208Z,97994.99
2019-03-16T16:07:24.552Z,98006.00
2019-03-16T16:09:55.840Z,98000.36
2019-03-16T16:12:27.033Z,97992.17
2019-03-16T16:14:58.386Z,97998.59
2019-03-16T16:17:29.931Z,98005.34
2019-03-16T16:20:01.282Z,97996.93
2019-03-16T16:22:32.673Z,97998.37
2019-03-16T16:25:04.632Z,97995.23
2019-03-16T16:27:35.296Z,97990.55
2019-03-16T16:30:15.416Z,97983.84
2019-03-16T16:32:46.851Z,97994.63
2019-03-16T16:35:20.463Z,97987.59
2019-03-16T16:37:51.815Z,97989.91
2019-03-16T16:40:23.187Z,97989.77
2019-03-16T16:42:54.583Z,97979.36
2019-03-16T16:45:25.864Z,97985.09
2019-03-16T16:47:57.121Z,97993.52
2019-03-16T16:50:28.327Z,97996.20
2019-03-16T16:52:59.690Z,98002.48
2019-03-16T16:55:31.079Z,97994.86
2019-03-16T16:58:02.467Z,97992.87
2019-03-16T17:00:34.021Z,98000.27
2019-03-16T17:03:05.861Z,98001.89
2019-03-16T17:05:37.312Z,98006.14
2019-03-16T17:08:08.649Z,98007.25
2019-03-16T17:10:40.055Z,98008.14
2019-03-16T17:13:11.457Z,98010.99
2019-03-16T17:15:42.794Z,98001.31
2019-03-16T17:18:14.213Z,98012.64
2019-03-16T17:20:45.635Z,98005.20
2019-03-16T17:23:16.922Z,98024.57
2019-03-16T17:25:49.384Z,98021.42
2019-03-16T17:28:20.746Z,98026.41
2019-03-16T17:30:52.097Z,98025.23
2019-03-16T17:33:23.452Z,98024.85
2019-03-16T17:35:54.885Z,98060.20
2019-03-16T17:38:26.245Z,98060.20
2019-03-16T17:40:57.526Z,98062.89
2019-03-16T17:43:29.007Z,98072.33
2019-03-16T17:46:00.424Z,98084.62
2019-03-16T17:48:31.670Z,98086.05
2019-03-16T17:51:03.040Z,98086.42
2019-03-16T17:53:34.436Z,98100.89
2019-03-16T17:56:05.758Z,98095.24
2019-03-16T17:58:37.066Z,98090.03
2019-03-16T18:01:08.434Z,98091.05
2019-03-16T18:03:39.758Z,98084.16
2019-03-16T18:06:11.001Z,98084.81
2019-03-16T18:08:42.313Z,98083.16
2019-03-16T18:11:13.585Z,98084.08
2019-03-16T18:13:45.509Z,98081.50
2019-03-16T18:16:16.762Z,98083.36
2019-03-16T18:18:48.143Z,98080.91
2019-03-16T18:21:19.405Z,98082.45
2019-03-16T18:23:50.798Z,98089.13
2019-03-16T18:26:22.184Z,98088.80
2019-03-16T18:28:53.543Z,98089.31
2019-03-16T18:31:24.895Z,98087.80
2019-03-16T18:33:56.123Z,98097.95
2019-03-16T18:36:27.502Z,98091.39
2019-03-16T18:38:58.544Z,98096.61
2019-03-16T18:41:29.802Z,98086.34
2019-03-16T18:44:01.142Z,98082.23
2019-03-16T18:46:32.428Z,98085.22
2019-03-16T18:49:03.686Z,98079.67
2019-03-16T18:51:35.000Z,98079.05
2019-03-16T18:54:06.256Z,98080.19
2019-03-16T18:56:37.575Z,98073.01
2019-03-16T18:59:09.344Z,98076.89
2019-03-16T19:01:41.023Z,98073.09
2019-03-16T19:04:12.318Z,98071.34
2019-03-16T19:06:43.632Z,98071.13
2019-03-16T19:09:14.925Z,98074.63
2019-03-16T19:11:46.243Z,98073.73
2019-03-16T19:14:17.623Z,98070.51
2019-03-16T19:16:48.893Z,98068.11
2019-03-16T19:19:20.180Z,98065.52
2019-03-16T19:21:51.529Z,98070.38
2019-03-16T19:24:23.943Z,98064.05
2019-03-16T19:26:55.284Z,98070.22
2019-03-16T19:29:26.661Z,98064.87
2019-03-16T19:31:58.035Z,98070.08
2019-03-16T19:34:29.369Z,98070.38
2019-03-16T19:37:00.568Z,98078.21
2019-03-16T19:39:31.929Z,98066.27
2019-03-16T19:42:03.229Z,98065.45
2019-03-16T19:44:34.606Z,98063.41
2019-03-16T19:47:05.966Z,98056.72
2019-03-16T19:49:37.268Z,98066.78
2019-03-16T19:52:08.667Z,98057.03
2019-03-16T19:54:39.984Z,98049.09
2019-03-16T19:57:16.244Z,98052.94
2019-03-16T19:59:44.322Z,98051.69
2019-03-16T20:02:15.669Z,98051.38
2019-03-16T20:04:47.118Z,98054.84
2019-03-16T20:07:19.588Z,98057.94
2019-03-16T20:09:51.459Z,98056.02
2019-03-16T20:12:22.797Z,98045.15
2019-03-16T20:14:54.124Z,98058.28
2019-03-16T20:17:25.422Z,98056.02
2019-03-16T20:19:56.874Z,98044.59
2019-03-16T20:22:28.301Z,98046.84
2019-03-16T20:24:59.619Z,98046.99
2019-03-16T20:27:31.046Z,98046.99
2019-03-16T20:30:02.421Z,98044.95
2019-03-16T20:32:35.037Z,98036.95
2019-03-16T20:35:08.178Z,98034.98
2019-03-16T20:37:39.564Z,98042.78
2019-03-16T20:40:15.286Z,98040.73
2019-03-16T20:42:46.600Z,98038.78
2019-03-16T20:45:18.154Z,98053.78
2019-03-16T20:47:49.486Z,98045.69
2019-03-16T20:50:21.044Z,98055.83
2019-03-16T20:52:52.396Z,98054.50
2019-03-16T20:55:23.650Z,98052.13
2019-03-16T20:57:55.046Z,98045.95
2019-03-16T21:00:26.423Z,98046.06
2019-03-16T21:02:57.801Z,98045.30
2019-03-16T21:05:29.170Z,98049.93
2019-03-16T21:08:00.544Z,98053.62
2019-03-16T21:10:31.926Z,98055.69
2019-03-16T21:13:03.271Z,98055.06
2019-03-16T21:15:34.662Z,98058.47
2019-03-16T21:18:06.031Z,98060.11
2019-03-16T21:20:37.216Z,98057.01
2019-03-16T21:23:08.604Z,98053.72
2019-03-16T21:25:39.999Z,98059.06
2019-03-16T21:28:11.330Z,98062.81
2019-03-16T21:30:42.655Z,98055.88
2019-03-16T21:33:15.058Z,98065.91
2019-03-16T21:35:46.363Z,98074.06
2019-03-16T21:38:17.832Z,98071.33
2019-03-16T21:40:49.279Z,98070.27
2019-03-16T21:43:20.683Z,98072.37
2019-03-16T21:45:51.919Z,98067.88
2019-03-16T21:48:23.351Z,98074.35
2019-03-16T21:50:54.626Z,98067.80
2019-03-16T21:53:26.015Z,98077.84
2019-03-16T21:55:57.422Z,98073.65
2019-03-16T21:58:28.808Z,98082.25
2019-03-16T22:01:00.193Z,98077.07
2019-03-16T22:03:41.556Z,98080.99
2019-03-16T22:06:04.593Z,98082.81
2019-03-16T22:08:35.876Z,98080.13
2019-03-16T22:11:07.270Z,98083.44
2019-03-16T22:13:39.877Z,98082.63
2019-03-16T22:16:11.925Z,98087.22
2019-03-16T22:18:43.563Z,98096.16
2019-03-16T22:21:14.933Z,98099.11
2019-03-16T22:23:46.259Z,98098.52
2019-03-16T22:26:17.567Z,98090.31
2019-03-16T22:28:48.808Z,98096.36
2019-03-16T22:31:20.127Z,98100.44
2019-03-16T22:33:54.752Z,98107.11
2019-03-16T22:36:25.628Z,98106.59
2019-03-16T22:38:56.883Z,98108.30
2019-03-16T22:41:28.230Z,98113.09
2019-03-16T22:43:59.494Z,98113.88
2019-03-16T22:46:30.810Z,98112.56
2019-03-16T22:49:02.089Z,98115.86
2019-03-16T22:51:33.300Z,98115.62
2019-03-16T22:54:04.564Z,98119.52
2019-03-16T22:56:35.862Z,98115.44
2019-03-16T22:59:07.257Z,98117.64
2019-03-16T23:01:38.564Z,98119.10
2019-03-16T23:04:09.986Z,98125.52
2019-03-16T23:06:41.408Z,98128.54
2019-03-16T23:09:12.790Z,98125.59
2019-03-16T23:11:44.190Z,98119.19
2019-03-16T23:14:15.583Z,98128.86
2019-03-16T23:16:48.228Z,98124.56
2019-03-16T23:19:19.623Z,98126.20
2019-03-16T23:21:50.944Z,98125.54
2019-03-16T23:24:22.271Z,98124.70
2019-03-16T23:26:53.500Z,98132.97
2019-03-16T23:29:24.734Z,98136.06
2019-03-16T23:31:56.137Z,98135.56
2019-03-16T23:34:27.515Z,98140.95
2019-03-16T23:37:00.003Z,98133.87
2019-03-16T23:39:31.255Z,98143.97
2019-03-16T23:42:02.652Z,98137.33
2019-03-16T23:44:34.073Z,98141.14
2019-03-16T23:47:05.789Z,98144.34
2019-03-16T23:49:38.093Z,98140.15
2019-03-16T23:52:09.472Z,98136.94
2019-03-16T23:54:40.738Z,98135.11
2019-03-16T23:57:12.064Z,98136.66
2019-03-16T23:59:43.593Z,98142.14
